Time;durP1;ratioP1;P1;durP2;ratioP2;P2;SDS_P1;SDS_P2;PMS_P1;PMS_P2;Temp;Humidity;BMP_temperature;BMP_pressure;BME280_temperature;BME280_humidity;BME280_pressure;Samples;Min_cycle;Max_cycle;Signal;HPM_P1;HPM_P2
2022/06/30 00:02:17;;;;;;;9.45;7.68;;;;;;;;;;5018999;28;20036;-70
2022/06/30 00:04:42;;;;;;;9.25;8.35;;;;;;;;;;5017964;28;20541;-70
2022/06/30 00:07:07;;;;;;;10.67;7.90;;;;;;;;;;5015186;28;20511;-70
2022/06/30 00:09:32;;;;;;;10.13;8.40;;;;;;;;;;5022853;28;20029;-70
2022/06/30 00:11:57;;;;;;;8.33;7.43;;;;;;;;;;5020851;28;20036;-70
2022/06/30 00:14:22;;;;;;;11.50;8.60;;;;;;;;;;5021515;28;20282;-70
2022/06/30 00:16:48;;;;;;;10.13;7.60;;;;;;;;;;5024747;28;20502;-70
2022/06/30 00:19:13;;;;;;;13.40;8.60;;;;;;;;;;5020961;28;20263;-70
2022/06/30 00:21:39;;;;;;;9.82;7.65;;;;;;;;;;5024150;28;20024;-70
2022/06/30 00:24:04;;;;;;;14.10;8.33;;;;;;;;;;5022742;28;20032;-70
2022/06/30 00:26:29;;;;;;;11.07;8.32;;;;;;;;;;5025770;28;20013;-70
2022/06/30 00:28:54;;;;;;;10.30;8.07;;;;;;;;;;5019895;28;20432;-70
2022/06/30 00:31:19;;;;;;;8.53;7.50;;;;;;;;;;5023296;28;20290;-70
2022/06/30 00:33:45;;;;;;;10.13;7.80;;;;;;;;;;5018409;28;20068;-70
2022/06/30 00:36:10;;;;;;;12.05;7.80;;;;;;;;;;5021922;28;20045;-70
2022/06/30 00:38:35;;;;;;;10.20;7.37;;;;;;;;;;5014162;28;20460;-70
2022/06/30 00:41:00;;;;;;;7.63;6.53;;;;;;;;;;5017071;28;20025;-70
2022/06/30 00:43:25;;;;;;;11.18;7.50;;;;;;;;;;5016908;28;20309;-70
2022/06/30 00:45:51;;;;;;;9.00;7.82;;;;;;;;;;5015626;28;20487;-70
2022/06/30 00:48:17;;;;;;;12.57;8.98;;;;;;;;;;5015651;28;20084;-70
2022/06/30 00:50:42;;;;;;;11.45;9.57;;;;;;;;;;5016228;28;20021;-70
2022/06/30 00:53:08;;;;;;;11.15;9.30;;;;;;;;;;5019273;28;20032;-70
2022/06/30 00:55:34;;;;;;;16.83;11.38;;;;;;;;;;5022855;28;20153;-70
2022/06/30 00:58:00;;;;;;;14.48;10.73;;;;;;;;;;5016271;28;20017;-70
2022/06/30 01:00:26;;;;;;;13.18;9.95;;;;;;;;;;5019326;28;20022;-70
2022/06/30 01:02:51;;;;;;;12.80;9.93;;;;;;;;;;5018835;28;20551;-70
2022/06/30 01:05:17;;;;;;;13.73;10.45;;;;;;;;;;5016164;28;20025;-70
2022/06/30 01:07:43;;;;;;;16.92;12.27;;;;;;;;;;5018722;28;20028;-70
2022/06/30 01:12:52;;;;;;;15.70;11.23;;;;;;;;;;5016025;28;20032;-70
2022/06/30 01:15:18;;;;;;;19.08;10.90;;;;;;;;;;5013818;28;20222;-70
2022/06/30 01:17:44;;;;;;;14.80;10.80;;;;;;;;;;5017929;28;20029;-71
2022/06/30 01:20:09;;;;;;;15.48;11.77;;;;;;;;;;5022568;28;20017;-70
2022/06/30 01:22:34;;;;;;;12.85;10.18;;;;;;;;;;5020646;28;20034;-70
2022/06/30 01:25:00;;;;;;;15.90;12.48;;;;;;;;;;5016401;28;20022;-70
2022/06/30 01:27:25;;;;;;;14.07;11.40;;;;;;;;;;5019119;28;20053;-70
2022/06/30 01:29:53;;;;;;;15.40;11.70;;;;;;;;;;5029547;28;20339;-70
2022/06/30 01:32:18;;;;;;;12.80;10.60;;;;;;;;;;5021597;28;20037;-70
2022/06/30 01:34:44;;;;;;;13.98;10.63;;;;;;;;;;5019089;28;20021;-70
2022/06/30 01:37:09;;;;;;;14.52;11.05;;;;;;;;;;5016414;28;20084;-70
2022/06/30 01:39:34;;;;;;;15.05;11.50;;;;;;;;;;5024628;28;20378;-70
2022/06/30 01:42:01;;;;;;;13.75;10.25;;;;;;;;;;5021468;28;20128;-70
2022/06/30 01:44:26;;;;;;;13.13;10.00;;;;;;;;;;5018064;28;20104;-70
2022/06/30 01:46:51;;;;;;;13.77;10.50;;;;;;;;;;5016373;28;20716;-70
2022/06/30 01:49:16;;;;;;;14.48;11.10;;;;;;;;;;5017703;28;20279;-70
2022/06/30 01:51:41;;;;;;;13.10;10.87;;;;;;;;;;5018347;28;20485;-70
2022/06/30 01:54:08;;;;;;;16.27;11.77;;;;;;;;;;5016983;28;20080;-70
2022/06/30 01:56:33;;;;;;;14.80;11.93;;;;;;;;;;5017780;28;20263;-70
2022/06/30 01:58:58;;;;;;;17.90;11.98;;;;;;;;;;5017001;28;20022;-70
2022/06/30 02:01:23;;;;;;;25.27;11.45;;;;;;;;;;5020408;28;20117;-70
2022/06/30 02:03:49;;;;;;;14.30;11.35;;;;;;;;;;5019866;28;20147;-70
2022/06/30 02:06:14;;;;;;;12.75;10.15;;;;;;;;;;5022685;28;20029;-70
2022/06/30 02:08:39;;;;;;;13.50;10.25;;;;;;;;;;5020205;28;20495;-70
2022/06/30 02:11:05;;;;;;;15.48;10.95;;;;;;;;;;5020517;28;20032;-70
2022/06/30 02:13:30;;;;;;;16.43;11.17;;;;;;;;;;5019890;28;20013;-70
2022/06/30 02:15:55;;;;;;;17.23;12.07;;;;;;;;;;5020612;28;20495;-70
2022/06/30 02:18:20;;;;;;;13.57;11.23;;;;;;;;;;5018247;28;20030;-70
2022/06/30 02:20:46;;;;;;;15.52;11.02;;;;;;;;;;5015119;28;20043;-70
2022/06/30 02:23:11;;;;;;;17.33;12.88;;;;;;;;;;5019954;28;20124;-70
2022/06/30 02:25:36;;;;;;;17.35;12.60;;;;;;;;;;5016383;28;21024;-70
2022/06/30 02:28:04;;;;;;;17.27;12.43;;;;;;;;;;5015127;28;20037;-70
2022/06/30 02:30:29;;;;;;;18.50;14.18;;;;;;;;;;5015203;28;20310;-70
2022/06/30 02:32:54;;;;;;;23.58;14.02;;;;;;;;;;5014252;28;20144;-70
2022/06/30 02:35:20;;;;;;;17.57;11.80;;;;;;;;;;5017675;28;20029;-70
2022/06/30 02:37:45;;;;;;;17.70;12.90;;;;;;;;;;5019404;28;20610;-70
2022/06/30 02:40:10;;;;;;;18.20;13.63;;;;;;;;;;5016958;28;20048;-70
2022/06/30 02:42:36;;;;;;;19.75;13.15;;;;;;;;;;5019563;28;20289;-71
2022/06/30 02:45:01;;;;;;;16.33;12.23;;;;;;;;;;5016079;28;20266;-70
2022/06/30 02:47:34;;;;;;;17.33;12.32;;;;;;;;;;5020514;28;20037;-70
2022/06/30 02:50:00;;;;;;;13.52;11.63;;;;;;;;;;5015703;28;20026;-70
2022/06/30 02:52:25;;;;;;;17.00;11.40;;;;;;;;;;5014810;28;20022;-70
2022/06/30 02:54:50;;;;;;;15.32;11.88;;;;;;;;;;5015101;28;20102;-70
2022/06/30 02:57:15;;;;;;;21.20;13.67;;;;;;;;;;5015796;28;20467;-70
2022/06/30 02:59:40;;;;;;;23.47;15.37;;;;;;;;;;5019241;28;20035;-70
2022/06/30 03:02:06;;;;;;;21.90;15.40;;;;;;;;;;5013921;28;20100;-70
2022/06/30 03:04:31;;;;;;;19.50;14.73;;;;;;;;;;5018163;28;20037;-70
2022/06/30 03:06:56;;;;;;;22.77;15.43;;;;;;;;;;5018444;28;20279;-70
2022/06/30 03:09:22;;;;;;;19.45;13.88;;;;;;;;;;5021548;28;20039;-70
2022/06/30 03:11:47;;;;;;;19.40;14.00;;;;;;;;;;5019450;28;20026;-70
2022/06/30 03:14:12;;;;;;;18.65;13.73;;;;;;;;;;5018434;28;20075;-70
2022/06/30 03:16:37;;;;;;;17.73;12.47;;;;;;;;;;5013785;28;20032;-70
2022/06/30 03:19:03;;;;;;;21.05;13.73;;;;;;;;;;5016636;28;20266;-70
2022/06/30 03:21:28;;;;;;;22.52;14.38;;;;;;;;;;5018643;28;20024;-70
2022/06/30 03:23:53;;;;;;;19.83;13.43;;;;;;;;;;5018202;28;20129;-70
2022/06/30 03:26:18;;;;;;;18.13;13.47;;;;;;;;;;5017887;28;20593;-70
2022/06/30 03:28:43;;;;;;;18.63;12.82;;;;;;;;;;5014672;28;20498;-70
2022/06/30 03:31:09;;;;;;;20.87;13.13;;;;;;;;;;5015888;28;20088;-70
2022/06/30 03:33:34;;;;;;;17.92;13.73;;;;;;;;;;5015267;28;20341;-70
2022/06/30 03:36:00;;;;;;;21.38;15.43;;;;;;;;;;5016278;28;20380;-70
2022/06/30 03:38:25;;;;;;;28.58;18.92;;;;;;;;;;5022349;28;20469;-70
2022/06/30 03:40:50;;;;;;;24.63;18.48;;;;;;;;;;5031860;28;20036;-70
2022/06/30 03:43:17;;;;;;;30.87;20.10;;;;;;;;;;5023081;28;20060;-70
2022/06/30 03:45:42;;;;;;;27.58;17.95;;;;;;;;;;5018003;28;20081;-70
2022/06/30 03:48:07;;;;;;;27.90;17.13;;;;;;;;;;5013066;23;20558;-70
2022/06/30 03:50:33;;;;;;;26.13;17.95;;;;;;;;;;4983933;28;20734;-70
2022/06/30 03:52:58;;;;;;;24.15;16.58;;;;;;;;;;4988291;28;20748;-70
2022/06/30 03:55:23;;;;;;;23.45;17.08;;;;;;;;;;4990459;28;20031;-70
2022/06/30 03:57:49;;;;;;;23.23;17.50;;;;;;;;;;5001220;28;20116;-70
2022/06/30 04:00:14;;;;;;;25.15;17.75;;;;;;;;;;4988021;28;20278;-70
2022/06/30 04:02:39;;;;;;;22.00;15.75;;;;;;;;;;4991772;28;20157;-70
2022/06/30 04:05:05;;;;;;;24.87;16.17;;;;;;;;;;4987375;28;20027;-70
2022/06/30 04:07:30;;;;;;;23.65;16.90;;;;;;;;;;4986755;28;20268;-70
2022/06/30 04:09:55;;;;;;;22.65;15.95;;;;;;;;;;4983333;28;20022;-70
2022/06/30 04:12:20;;;;;;;24.98;16.67;;;;;;;;;;4997567;28;20027;-70
2022/06/30 04:14:46;;;;;;;29.15;18.50;;;;;;;;;;4985884;28;20037;-70
2022/06/30 04:17:11;;;;;;;27.40;18.93;;;;;;;;;;4995531;28;20030;-69
2022/06/30 04:19:37;;;;;;;31.33;20.60;;;;;;;;;;4990858;28;20124;-69
2022/06/30 04:22:02;;;;;;;32.03;21.30;;;;;;;;;;4989581;28;20536;-70
2022/06/30 04:24:27;;;;;;;34.03;21.55;;;;;;;;;;4992896;28;20381;-71
2022/06/30 04:26:53;;;;;;;31.87;20.47;;;;;;;;;;4987678;28;20088;-70
2022/06/30 04:29:18;;;;;;;31.73;21.37;;;;;;;;;;4989438;28;20394;-70
2022/06/30 04:34:27;;;;;;;28.00;20.15;;;;;;;;;;4985793;28;20085;-70
2022/06/30 04:36:52;;;;;;;30.30;20.65;;;;;;;;;;4985035;28;20033;-70
2022/06/30 04:39:25;;;;;;;31.07;22.70;;;;;;;;;;4983354;28;20432;-72
2022/06/30 04:41:50;;;;;;;34.75;23.55;;;;;;;;;;4984809;28;20827;-72
2022/06/30 04:44:15;;;;;;;31.00;21.52;;;;;;;;;;4983883;28;20130;-72
2022/06/30 04:46:40;;;;;;;34.43;23.17;;;;;;;;;;4983347;28;20060;-72
2022/06/30 04:49:06;;;;;;;44.77;28.17;;;;;;;;;;4983477;28;20350;-71
2022/06/30 04:51:31;;;;;;;38.92;26.55;;;;;;;;;;4983463;28;20014;-77
2022/06/30 04:53:56;;;;;;;31.38;23.48;;;;;;;;;;4983891;28;20046;-76
2022/06/30 04:56:21;;;;;;;30.20;23.27;;;;;;;;;;4986822;28;20054;-76
2022/06/30 04:58:46;;;;;;;34.60;23.07;;;;;;;;;;5004048;28;20263;-76
2022/06/30 05:01:12;;;;;;;30.73;23.43;;;;;;;;;;4988028;28;20021;-75
2022/06/30 05:03:37;;;;;;;36.45;23.38;;;;;;;;;;4994498;28;20374;-76
2022/06/30 05:06:03;;;;;;;31.92;23.10;;;;;;;;;;4980678;28;20034;-77
2022/06/30 05:08:28;;;;;;;37.17;25.42;;;;;;;;;;4985398;28;20684;-78
2022/06/30 05:10:53;;;;;;;39.63;27.05;;;;;;;;;;4986314;28;20029;-72
2022/06/30 05:13:19;;;;;;;32.22;24.60;;;;;;;;;;4985304;28;20030;-71
2022/06/30 05:15:47;;;;;;;41.47;27.27;;;;;;;;;;4984559;28;20101;-75
2022/06/30 05:18:13;;;;;;;39.58;27.05;;;;;;;;;;4983542;28;20040;-71
2022/06/30 05:20:39;;;;;;;44.10;30.58;;;;;;;;;;4979361;28;20032;-73
2022/06/30 05:23:04;;;;;;;47.55;31.08;;;;;;;;;;4980924;28;20080;-74
2022/06/30 05:28:13;;;;;;;43.58;32.58;;;;;;;;;;4981169;28;20522;-73
2022/06/30 05:30:39;;;;;;;47.00;30.95;;;;;;;;;;5000143;28;20058;-73
2022/06/30 05:33:04;;;;;;;46.88;33.75;;;;;;;;;;4984223;28;20030;-77
2022/06/30 05:35:29;;;;;;;45.92;32.63;;;;;;;;;;4981535;28;20479;-76
2022/06/30 05:37:55;;;;;;;41.15;29.58;;;;;;;;;;4995212;28;20033;-77
2022/06/30 05:40:20;;;;;;;41.90;29.88;;;;;;;;;;4981972;28;20542;-75
2022/06/30 05:42:45;;;;;;;36.47;26.45;;;;;;;;;;4983165;28;20029;-75
2022/06/30 05:45:10;;;;;;;35.33;25.17;;;;;;;;;;4984657;28;20045;-75
2022/06/30 05:47:49;;;;;;;33.03;23.35;;;;;;;;;;4981824;28;20484;-78
2022/06/30 05:50:15;;;;;;;25.35;20.38;;;;;;;;;;4979339;28;20044;-75
2022/06/30 05:52:41;;;;;;;31.42;21.75;;;;;;;;;;4984277;28;20106;-74
2022/06/30 05:55:07;;;;;;;30.25;21.85;;;;;;;;;;4990674;28;20121;-74
2022/06/30 05:57:32;;;;;;;29.40;20.60;;;;;;;;;;4988288;28;22340;-76
2022/06/30 05:59:57;;;;;;;26.77;20.93;;;;;;;;;;4984487;28;20031;-75
2022/06/30 06:02:22;;;;;;;26.50;20.87;;;;;;;;;;4987261;28;21910;-75
2022/06/30 06:04:47;;;;;;;28.27;20.42;;;;;;;;;;4981742;28;20026;-76
2022/06/30 06:07:13;;;;;;;27.67;20.97;;;;;;;;;;4987968;28;20427;-75
2022/06/30 06:09:38;;;;;;;26.07;20.40;;;;;;;;;;4986461;28;20273;-76
2022/06/30 06:12:03;;;;;;;26.07;21.47;;;;;;;;;;4998976;28;20331;-75
2022/06/30 06:14:28;;;;;;;27.67;21.15;;;;;;;;;;4986042;28;20254;-75
2022/06/30 06:16:53;;;;;;;28.60;23.23;;;;;;;;;;4981767;28;20423;-76
2022/06/30 06:19:19;;;;;;;29.02;23.13;;;;;;;;;;4983287;28;20046;-73
2022/06/30 06:21:44;;;;;;;29.47;24.53;;;;;;;;;;4975488;28;20460;-76
2022/06/30 06:24:09;;;;;;;31.80;23.93;;;;;;;;;;4973670;28;20279;-74
2022/06/30 06:26:34;;;;;;;29.40;23.23;;;;;;;;;;4987827;28;20054;-74
2022/06/30 06:29:05;;;;;;;32.47;23.03;;;;;;;;;;4992804;28;20137;-74
2022/06/30 06:31:31;;;;;;;32.08;24.38;;;;;;;;;;4982027;28;20061;-75
2022/06/30 06:33:57;;;;;;;32.17;24.98;;;;;;;;;;4982384;28;20031;-73
2022/06/30 06:36:22;;;;;;;32.03;26.63;;;;;;;;;;4982138;28;20019;-75
2022/06/30 06:38:47;;;;;;;31.48;27.33;;;;;;;;;;4987424;28;20612;-73
2022/06/30 06:41:12;;;;;;;32.77;26.93;;;;;;;;;;4984337;28;20033;-73
2022/06/30 06:43:37;;;;;;;30.50;25.73;;;;;;;;;;4983858;28;20027;-74
2022/06/30 06:46:03;;;;;;;37.42;27.55;;;;;;;;;;4996771;28;20030;-73
2022/06/30 06:48:28;;;;;;;31.27;24.90;;;;;;;;;;4984880;28;20036;-74
2022/06/30 06:50:53;;;;;;;32.87;26.10;;;;;;;;;;4979855;28;20109;-75
2022/06/30 06:53:18;;;;;;;37.60;27.95;;;;;;;;;;4986377;28;20030;-73
2022/06/30 06:55:44;;;;;;;36.83;28.20;;;;;;;;;;4982692;28;20064;-74
2022/06/30 06:58:10;;;;;;;38.50;27.38;;;;;;;;;;4986413;28;20411;-75
2022/06/30 07:00:35;;;;;;;39.08;28.33;;;;;;;;;;4982766;28;20330;-77
2022/06/30 07:03:00;;;;;;;31.95;26.20;;;;;;;;;;4981356;28;20018;-75
2022/06/30 07:05:26;;;;;;;36.13;30.13;;;;;;;;;;4982857;28;20065;-75
2022/06/30 07:07:58;;;;;;;35.05;28.80;;;;;;;;;;4984642;28;20022;-74
2022/06/30 07:10:24;;;;;;;39.65;30.55;;;;;;;;;;4982480;28;20114;-74
2022/06/30 07:12:49;;;;;;;38.40;27.85;;;;;;;;;;4979694;28;20684;-77
2022/06/30 07:15:14;;;;;;;37.27;28.87;;;;;;;;;;4983567;28;20014;-74
2022/06/30 07:17:39;;;;;;;39.70;29.47;;;;;;;;;;4984705;28;20496;-74
2022/06/30 07:20:05;;;;;;;34.55;28.45;;;;;;;;;;4985053;28;20018;-75
2022/06/30 07:22:30;;;;;;;37.22;28.02;;;;;;;;;;4989457;28;20041;-75
2022/06/30 07:24:56;;;;;;;36.95;28.05;;;;;;;;;;4981412;28;20061;-74
2022/06/30 07:27:21;;;;;;;37.42;28.58;;;;;;;;;;4985281;28;20065;-76
2022/06/30 07:29:46;;;;;;;34.75;27.05;;;;;;;;;;4987749;28;20554;-75
2022/06/30 07:32:13;;;;;;;36.93;27.40;;;;;;;;;;4985925;28;20100;-75
2022/06/30 07:34:38;;;;;;;38.85;27.83;;;;;;;;;;4999435;28;20401;-74
2022/06/30 07:37:03;;;;;;;39.30;26.43;;;;;;;;;;4986670;28;20054;-72
2022/06/30 07:39:28;;;;;;;38.90;24.45;;;;;;;;;;4982900;28;20057;-74
2022/06/30 07:41:55;;;;;;;34.97;24.60;;;;;;;;;;4984366;28;20408;-71
2022/06/30 07:44:20;;;;;;;27.25;21.35;;;;;;;;;;4983241;28;20015;-72
2022/06/30 07:46:45;;;;;;;34.17;19.93;;;;;;;;;;4994416;28;20591;-72
2022/06/30 07:49:10;;;;;;;29.60;20.50;;;;;;;;;;4997277;28;20030;-73
2022/06/30 07:51:36;;;;;;;24.02;17.95;;;;;;;;;;4993008;28;20290;-73
2022/06/30 07:54:01;;;;;;;23.38;16.48;;;;;;;;;;5002943;28;20117;-71
2022/06/30 07:56:26;;;;;;;24.35;17.02;;;;;;;;;;5006786;28;20018;-71
2022/06/30 07:58:51;;;;;;;25.00;16.83;;;;;;;;;;5001250;28;20030;-72
2022/06/30 08:01:19;;;;;;;19.77;15.60;;;;;;;;;;4990522;28;20030;-73
2022/06/30 08:03:44;;;;;;;20.25;14.30;;;;;;;;;;4993386;28;20260;-71
2022/06/30 08:06:09;;;;;;;22.53;12.90;;;;;;;;;;5001843;28;20026;-74
2022/06/30 08:08:35;;;;;;;17.67;13.25;;;;;;;;;;5001533;28;20085;-74
2022/06/30 08:11:00;;;;;;;15.13;12.17;;;;;;;;;;4988543;28;20268;-75
2022/06/30 08:13:26;;;;;;;17.20;11.10;;;;;;;;;;4996651;28;20025;-73
2022/06/30 08:15:51;;;;;;;17.73;11.90;;;;;;;;;;4999144;28;20282;-73
2022/06/30 08:18:16;;;;;;;16.90;10.88;;;;;;;;;;4991191;28;20026;-74
2022/06/30 08:20:41;;;;;;;17.98;11.30;;;;;;;;;;4993049;28;20189;-74
2022/06/30 08:23:07;;;;;;;14.33;10.60;;;;;;;;;;4998934;28;20029;-70
2022/06/30 08:25:32;;;;;;;19.58;12.30;;;;;;;;;;4992575;28;20030;-75
2022/06/30 08:27:57;;;;;;;18.97;12.30;;;;;;;;;;4995698;28;20030;-72
2022/06/30 08:30:23;;;;;;;22.90;11.10;;;;;;;;;;5005123;28;20627;-74
2022/06/30 08:32:48;;;;;;;19.98;12.75;;;;;;;;;;5002977;28;20029;-75
2022/06/30 08:35:14;;;;;;;20.55;12.18;;;;;;;;;;4999815;28;20347;-74
2022/06/30 08:37:39;;;;;;;15.93;11.57;;;;;;;;;;4988802;28;20065;-75
2022/06/30 08:42:49;;;;;;;14.45;10.95;;;;;;;;;;4988391;28;20081;-71
2022/06/30 08:45:14;;;;;;;14.85;10.55;;;;;;;;;;4993088;28;20484;-74
2022/06/30 08:47:40;;;;;;;26.50;14.32;;;;;;;;;;4996699;28;20032;-75
2022/06/30 08:50:08;;;;;;;16.65;10.32;;;;;;;;;;4992086;28;20060;-74
2022/06/30 08:52:34;;;;;;;21.52;12.00;;;;;;;;;;4996235;28;20125;-72
2022/06/30 08:55:01;;;;;;;22.52;15.13;;;;;;;;;;5003456;28;20053;-75
2022/06/30 08:57:27;;;;;;;17.45;8.75;;;;;;;;;;4995603;28;20387;-71
2022/06/30 08:59:52;;;;;;;14.82;8.38;;;;;;;;;;4993838;28;20025;-75
2022/06/30 09:02:18;;;;;;;45.78;19.45;;;;;;;;;;4996511;28;20026;-74
2022/06/30 09:04:43;;;;;;;12.35;8.25;;;;;;;;;;5001894;28;20091;-74
2022/06/30 09:07:10;;;;;;;16.92;11.15;;;;;;;;;;4989436;28;20030;-75
2022/06/30 09:09:35;;;;;;;24.60;13.10;;;;;;;;;;4984879;28;20069;-75
2022/06/30 09:12:00;;;;;;;22.33;13.07;;;;;;;;;;4998730;28;20033;-72
2022/06/30 09:14:39;;;;;;;16.42;10.55;;;;;;;;;;4992897;28;20436;-75
2022/06/30 09:17:06;;;;;;;15.73;10.23;;;;;;;;;;4989482;28;20049;-72
2022/06/30 09:19:32;;;;;;;25.02;17.02;;;;;;;;;;4981429;28;20034;-74
2022/06/30 09:22:03;;;;;;;19.00;12.60;;;;;;;;;;4994425;28;20022;-74
2022/06/30 09:24:28;;;;;;;17.02;8.07;;;;;;;;;;4993088;28;20109;-74
2022/06/30 09:27:07;;;;;;;15.43;8.77;;;;;;;;;;4992696;28;20758;-71
2022/06/30 09:29:32;;;;;;;16.88;8.73;;;;;;;;;;4985199;28;20034;-72
2022/06/30 09:31:58;;;;;;;10.07;7.38;;;;;;;;;;4986439;28;20023;-75
2022/06/30 09:34:23;;;;;;;13.47;8.53;;;;;;;;;;4990062;28;20026;-74
2022/06/30 09:36:49;;;;;;;16.48;11.18;;;;;;;;;;4991355;28;20279;-75
2022/06/30 09:39:15;;;;;;;12.95;9.85;;;;;;;;;;4984135;28;21389;-75
2022/06/30 09:41:41;;;;;;;18.63;11.60;;;;;;;;;;4988324;28;20026;-75
2022/06/30 09:44:10;;;;;;;19.38;12.80;;;;;;;;;;4987560;28;20032;-75
2022/06/30 09:46:36;;;;;;;16.58;9.98;;;;;;;;;;4991600;28;20061;-75
2022/06/30 09:49:03;;;;;;;20.83;10.60;;;;;;;;;;4989032;28;20373;-74
2022/06/30 09:51:29;;;;;;;17.95;10.88;;;;;;;;;;4981036;28;20061;-73
2022/06/30 09:54:09;;;;;;;27.20;15.30;;;;;;;;;;4989197;28;20033;-73
2022/06/30 09:56:34;;;;;;;16.83;10.23;;;;;;;;;;4988538;28;20018;-71
2022/06/30 09:58:59;;;;;;;28.53;18.80;;;;;;;;;;4985684;28;20510;-75
2022/06/30 10:01:25;;;;;;;15.45;10.75;;;;;;;;;;4987916;28;20307;-74
2022/06/30 10:03:59;;;;;;;26.23;12.27;;;;;;;;;;4984220;28;20106;-75
2022/06/30 10:06:25;;;;;;;18.00;9.48;;;;;;;;;;4984528;28;20130;-74
2022/06/30 10:08:51;;;;;;;16.02;9.15;;;;;;;;;;4987978;28;20064;-75
2022/06/30 10:11:16;;;;;;;18.02;8.63;;;;;;;;;;4989035;28;20100;-74
2022/06/30 10:13:43;;;;;;;16.50;7.72;;;;;;;;;;4992325;28;20049;-74
2022/06/30 10:16:08;;;;;;;17.02;9.40;;;;;;;;;;4990767;28;20026;-73
2022/06/30 10:18:36;;;;;;;18.65;8.10;;;;;;;;;;4990661;28;20476;-71
2022/06/30 10:21:01;;;;;;;22.35;10.32;;;;;;;;;;4983675;28;20110;-73
2022/06/30 10:23:27;;;;;;;23.02;9.88;;;;;;;;;;4986087;28;20101;-74
2022/06/30 10:25:54;;;;;;;13.70;7.73;;;;;;;;;;4990931;28;20026;-74
2022/06/30 10:28:19;;;;;;;15.18;8.10;;;;;;;;;;4985461;28;20048;-75
2022/06/30 10:30:47;;;;;;;13.65;7.18;;;;;;;;;;4990926;28;20037;-74
2022/06/30 10:33:17;;;;;;;13.07;8.68;;;;;;;;;;4988275;28;20026;-70
2022/06/30 10:35:48;;;;;;;17.52;8.63;;;;;;;;;;4987909;28;20054;-74
2022/06/30 10:38:16;;;;;;;18.58;9.50;;;;;;;;;;4989664;28;20408;-72
2022/06/30 10:40:58;;;;;;;16.58;8.75;;;;;;;;;;4983798;28;20498;-71
2022/06/30 10:43:23;;;;;;;16.02;9.15;;;;;;;;;;4986483;28;20054;-75
2022/06/30 10:45:59;;;;;;;14.97;8.23;;;;;;;;;;4986867;28;20488;-75
2022/06/30 10:48:24;;;;;;;14.15;9.30;;;;;;;;;;4979300;28;20478;-70
2022/06/30 10:50:51;;;;;;;14.25;8.85;;;;;;;;;;4987124;28;20058;-72
2022/06/30 10:53:22;;;;;;;13.10;7.63;;;;;;;;;;4990007;28;20038;-72
2022/06/30 10:55:47;;;;;;;12.48;7.38;;;;;;;;;;4985413;28;20473;-74
2022/06/30 10:58:12;;;;;;;15.00;8.25;;;;;;;;;;4990686;28;20468;-74
2022/06/30 11:00:41;;;;;;;19.13;8.90;;;;;;;;;;4979374;28;20044;-73
2022/06/30 11:03:07;;;;;;;15.63;9.93;;;;;;;;;;4984605;28;20029;-74
2022/06/30 11:05:32;;;;;;;22.03;8.83;;;;;;;;;;4984461;28;20030;-73
2022/06/30 11:08:17;;;;;;;11.05;7.55;;;;;;;;;;4985398;28;20049;-72
2022/06/30 11:10:42;;;;;;;13.35;5.60;;;;;;;;;;4999949;28;20027;-74
2022/06/30 11:13:07;;;;;;;17.20;8.37;;;;;;;;;;4988562;28;20057;-76
2022/06/30 11:15:48;;;;;;;19.35;8.85;;;;;;;;;;4985328;28;20027;-73
2022/06/30 11:18:14;;;;;;;16.08;8.70;;;;;;;;;;4976633;28;20030;-74
2022/06/30 11:20:41;;;;;;;13.23;7.60;;;;;;;;;;4987447;28;20053;-71
2022/06/30 11:23:07;;;;;;;14.65;8.02;;;;;;;;;;4988178;28;20280;-74
2022/06/30 11:28:17;;;;;;;16.30;8.93;;;;;;;;;;4994765;28;20267;-74
2022/06/30 11:30:43;;;;;;;14.80;7.95;;;;;;;;;;4994952;28;20025;-75
2022/06/30 11:33:08;;;;;;;15.75;7.97;;;;;;;;;;4992941;28;20471;-74
2022/06/30 11:35:33;;;;;;;16.87;7.63;;;;;;;;;;4991133;28;20022;-74
2022/06/30 11:37:58;;;;;;;14.63;7.93;;;;;;;;;;4986611;28;20026;-75
2022/06/30 11:40:24;;;;;;;12.23;7.38;;;;;;;;;;4988547;28;20035;-74
2022/06/30 11:42:51;;;;;;;22.20;8.70;;;;;;;;;;4989748;28;20049;-75
2022/06/30 11:45:20;;;;;;;15.43;7.82;;;;;;;;;;4995294;28;20756;-74
2022/06/30 11:47:59;;;;;;;12.48;6.78;;;;;;;;;;4980448;28;20082;-75
2022/06/30 11:50:26;;;;;;;10.60;5.47;;;;;;;;;;4989568;28;20026;-75
2022/06/30 11:52:52;;;;;;;9.57;5.80;;;;;;;;;;4988980;28;20046;-75
2022/06/30 11:55:17;;;;;;;11.93;6.45;;;;;;;;;;4992687;28;20037;-75
2022/06/30 11:57:48;;;;;;;12.38;6.32;;;;;;;;;;4986839;28;20077;-74
2022/06/30 12:00:13;;;;;;;11.40;5.28;;;;;;;;;;4985253;28;20029;-75
2022/06/30 12:02:40;;;;;;;13.40;6.43;;;;;;;;;;4983358;28;20022;-75
2022/06/30 12:05:07;;;;;;;8.55;5.45;;;;;;;;;;4988941;28;20046;-75
2022/06/30 12:07:36;;;;;;;12.23;6.20;;;;;;;;;;4998498;28;20506;-75
2022/06/30 12:10:02;;;;;;;11.80;6.25;;;;;;;;;;4988629;28;20026;-75
2022/06/30 12:12:28;;;;;;;10.38;5.82;;;;;;;;;;4990554;28;20443;-75
2022/06/30 12:14:55;;;;;;;7.50;5.53;;;;;;;;;;4989368;28;20026;-75
2022/06/30 12:17:20;;;;;;;10.27;6.03;;;;;;;;;;4987877;28;20508;-75
2022/06/30 12:19:46;;;;;;;12.05;6.63;;;;;;;;;;4989493;28;20030;-75
2022/06/30 12:22:11;;;;;;;15.50;7.07;;;;;;;;;;4985950;28;20038;-74
2022/06/30 12:24:38;;;;;;;13.20;6.45;;;;;;;;;;4994976;28;20030;-75
2022/06/30 12:27:04;;;;;;;15.82;6.47;;;;;;;;;;4988257;28;20105;-74
2022/06/30 12:29:29;;;;;;;12.13;7.82;;;;;;;;;;4990031;28;20029;-75
2022/06/30 12:32:02;;;;;;;11.90;7.80;;;;;;;;;;4986659;28;20026;-75
2022/06/30 12:34:28;;;;;;;15.82;8.32;;;;;;;;;;4990500;28;20066;-74
2022/06/30 12:37:00;;;;;;;18.33;7.75;;;;;;;;;;4984977;28;20580;-74
2022/06/30 12:39:26;;;;;;;13.57;7.43;;;;;;;;;;4987895;28;20065;-75
2022/06/30 12:41:59;;;;;;;14.80;8.02;;;;;;;;;;4988264;28;20068;-74
2022/06/30 12:44:36;;;;;;;10.95;7.85;;;;;;;;;;5002849;28;20036;-75
2022/06/30 12:47:02;;;;;;;16.02;7.32;;;;;;;;;;4985361;28;20061;-74
2022/06/30 12:49:27;;;;;;;16.23;7.45;;;;;;;;;;4991231;28;20030;-74
2022/06/30 12:51:52;;;;;;;8.63;6.72;;;;;;;;;;4986618;28;20026;-73
2022/06/30 12:54:22;;;;;;;16.90;8.23;;;;;;;;;;4988192;28;20372;-74
2022/06/30 12:56:51;;;;;;;13.10;7.55;;;;;;;;;;4988121;28;20472;-75
2022/06/30 12:59:18;;;;;;;13.30;6.95;;;;;;;;;;4985281;28;20061;-75
2022/06/30 13:01:52;;;;;;;10.77;6.20;;;;;;;;;;4987851;28;20025;-74
2022/06/30 13:04:19;;;;;;;16.40;7.00;;;;;;;;;;4986899;28;20026;-72
2022/06/30 13:06:45;;;;;;;11.20;6.03;;;;;;;;;;4984902;28;20113;-73
2022/06/30 13:09:11;;;;;;;13.88;5.55;;;;;;;;;;4987069;28;20061;-75
2022/06/30 13:11:37;;;;;;;16.85;6.15;;;;;;;;;;4986703;28;20431;-75
2022/06/30 13:14:03;;;;;;;12.13;6.35;;;;;;;;;;4984026;28;20031;-76
2022/06/30 13:16:32;;;;;;;12.18;6.15;;;;;;;;;;4983144;28;20384;-76
2022/06/30 13:18:59;;;;;;;13.05;6.03;;;;;;;;;;4983819;28;20512;-73
2022/06/30 13:21:24;;;;;;;12.20;6.38;;;;;;;;;;4985174;28;20034;-73
2022/06/30 13:23:49;;;;;;;10.57;5.93;;;;;;;;;;4985113;28;20032;-75
2022/06/30 13:26:14;;;;;;;7.70;5.40;;;;;;;;;;4987920;28;20041;-75
2022/06/30 13:28:40;;;;;;;12.37;5.63;;;;;;;;;;4981135;28;20033;-74
2022/06/30 13:31:06;;;;;;;11.93;5.82;;;;;;;;;;4987840;28;20034;-74
2022/06/30 13:33:34;;;;;;;10.13;5.63;;;;;;;;;;4984599;28;20041;-75
2022/06/30 13:35:59;;;;;;;9.80;4.25;;;;;;;;;;4987877;28;20026;-74
2022/06/30 13:38:24;;;;;;;8.07;4.43;;;;;;;;;;4996556;28;20092;-73
2022/06/30 13:40:49;;;;;;;10.05;4.97;;;;;;;;;;4987095;28;20019;-77
2022/06/30 13:43:14;;;;;;;8.40;4.50;;;;;;;;;;4991048;28;20034;-74
2022/06/30 13:45:40;;;;;;;10.23;4.43;;;;;;;;;;4987443;28;20473;-74
2022/06/30 13:48:05;;;;;;;9.93;4.70;;;;;;;;;;4979966;28;20030;-74
2022/06/30 13:50:30;;;;;;;12.40;5.37;;;;;;;;;;4984709;28;20027;-73
2022/06/30 13:52:55;;;;;;;6.72;4.40;;;;;;;;;;4986236;28;20316;-75
2022/06/30 13:55:20;;;;;;;8.17;4.80;;;;;;;;;;4986182;28;20338;-72
2022/06/30 13:57:46;;;;;;;11.70;4.50;;;;;;;;;;4986398;28;20635;-73
2022/06/30 14:00:11;;;;;;;8.25;4.88;;;;;;;;;;4982043;28;20457;-72
2022/06/30 14:02:37;;;;;;;7.75;5.07;;;;;;;;;;4986461;28;20483;-75
2022/06/30 14:05:02;;;;;;;9.90;5.07;;;;;;;;;;4984786;28;20026;-74
2022/06/30 14:07:28;;;;;;;10.70;4.82;;;;;;;;;;4981387;28;20030;-73
2022/06/30 14:09:53;;;;;;;7.72;4.43;;;;;;;;;;4983565;28;20034;-72
2022/06/30 14:12:19;;;;;;;10.75;4.47;;;;;;;;;;4987031;28;20467;-72
2022/06/30 14:14:44;;;;;;;9.90;4.15;;;;;;;;;;5001941;28;20390;-74
2022/06/30 14:17:09;;;;;;;9.43;4.70;;;;;;;;;;4979703;28;20030;-75
2022/06/30 14:19:35;;;;;;;6.30;4.03;;;;;;;;;;4986253;28;20647;-74
2022/06/30 14:22:00;;;;;;;7.67;4.00;;;;;;;;;;4985105;28;20076;-74
2022/06/30 14:24:25;;;;;;;8.20;4.30;;;;;;;;;;4986532;28;20514;-71
2022/06/30 14:26:50;;;;;;;12.15;4.68;;;;;;;;;;4984605;28;20436;-74
2022/06/30 14:29:16;;;;;;;10.30;4.50;;;;;;;;;;4995103;28;20517;-75
2022/06/30 14:31:41;;;;;;;7.23;4.30;;;;;;;;;;4985945;28;20535;-76